createdAt,value
2023-02-04T00:01:54.845Z,7.42
2023-02-04T00:04:22.935Z,7.42
2023-02-04T00:06:50.754Z,7.47
2023-02-04T00:09:18.638Z,7.45
2023-02-04T00:11:47.908Z,7.44
2023-02-04T00:14:15.875Z,7.40
2023-02-04T00:16:44.084Z,7.41
2023-02-04T00:19:11.918Z,7.44
2023-02-04T00:21:40.191Z,7.43
2023-02-04T00:24:08.731Z,7.41
2023-02-04T00:26:36.712Z,7.39
2023-02-04T00:29:06.372Z,7.40
2023-02-04T00:31:34.921Z,7.38
2023-02-04T00:34:03.379Z,7.37
2023-02-04T00:36:31.432Z,7.31
2023-02-04T00:38:59.608Z,7.30
2023-02-04T00:41:27.911Z,7.29
2023-02-04T00:43:55.924Z,7.30
2023-02-04T00:46:25.581Z,7.28
2023-02-04T00:48:53.490Z,7.28
2023-02-04T00:51:21.525Z,7.28
2023-02-04T00:53:50.021Z,7.26
2023-02-04T00:56:17.870Z,7.23
2023-02-04T00:58:45.721Z,7.21
2023-02-04T01:01:14.190Z,7.25
2023-02-04T01:03:43.438Z,7.23
2023-02-04T01:06:11.296Z,7.28
2023-02-04T01:08:39.237Z,7.27
2023-02-04T01:11:08.610Z,7.22
2023-02-04T01:13:36.612Z,7.22
2023-02-04T01:16:05.153Z,7.28
2023-02-04T01:18:33.486Z,7.26
2023-02-04T01:21:02.809Z,7.27
2023-02-04T01:23:31.213Z,7.32
2023-02-04T01:25:59.402Z,7.36
2023-02-04T01:28:27.277Z,7.35
2023-02-04T01:30:55.225Z,7.38
2023-02-04T01:33:23.579Z,7.36
2023-02-04T01:35:51.596Z,7.43
2023-02-04T01:38:20.844Z,7.36
2023-02-04T01:40:49.342Z,7.41
2023-02-04T01:43:18.428Z,7.45
2023-02-04T01:45:46.819Z,7.39
2023-02-04T01:48:20.754Z,7.41
2023-02-04T01:50:49.151Z,7.50
2023-02-04T01:53:22.960Z,7.48
2023-02-04T01:55:51.653Z,7.48
2023-02-04T01:58:20.331Z,7.46
2023-02-04T02:00:48.247Z,7.44
2023-02-04T02:03:16.114Z,7.44
2023-02-04T02:05:46.942Z,7.38
2023-02-04T02:08:15.307Z,7.35
2023-02-04T02:10:48.032Z,7.38
2023-02-04T02:13:18.603Z,7.34
2023-02-04T02:15:46.996Z,7.34
2023-02-04T02:18:15.572Z,7.28
2023-02-04T02:20:45.355Z,7.35
2023-02-04T02:23:22.310Z,7.41
2023-02-04T02:25:52.746Z,7.36
2023-02-04T02:28:23.664Z,7.42
2023-02-04T02:30:52.338Z,7.42
2023-02-04T02:33:22.121Z,7.42
2023-02-04T02:35:50.987Z,7.40
2023-02-04T02:38:20.298Z,7.40
2023-02-04T02:40:51.555Z,7.40
2023-02-04T02:43:23.126Z,7.42
2023-02-04T02:45:51.744Z,7.40
2023-02-04T02:48:19.854Z,7.41
2023-02-04T02:50:49.211Z,7.40
2023-02-04T02:53:20.171Z,7.34
2023-02-04T02:55:48.381Z,7.34
2023-02-04T02:58:19.703Z,7.34
2023-02-04T03:00:49.473Z,7.30
2023-02-04T03:03:22.272Z,7.31
2023-02-04T03:05:53.776Z,7.27
2023-02-04T03:08:21.993Z,7.25
2023-02-04T03:10:50.551Z,7.26
2023-02-04T03:13:19.393Z,7.20
2023-02-04T03:15:49.726Z,7.23
2023-02-04T03:18:21.169Z,7.24
2023-02-04T03:20:51.601Z,7.23
2023-02-04T03:23:21.095Z,7.18
2023-02-04T03:25:49.504Z,7.10
2023-02-04T03:28:17.818Z,7.21
2023-02-04T03:30:56.435Z,7.18
2023-02-04T03:33:29.023Z,7.16
2023-02-04T03:35:57.329Z,7.13
2023-02-04T03:38:25.513Z,7.14
2023-02-04T03:40:53.389Z,7.12
2023-02-04T03:43:21.677Z,7.11
2023-02-04T03:45:49.689Z,7.05
2023-02-04T03:48:17.633Z,7.06
2023-02-04T03:50:47.448Z,7.05
2023-02-04T03:53:15.413Z,7.09
2023-02-04T03:55:43.283Z,7.07
2023-02-04T03:58:11.630Z,7.02
2023-02-04T04:00:39.535Z,7.00
2023-02-04T04:03:07.491Z,7.02
2023-02-04T04:05:35.964Z,6.98
2023-02-04T04:08:05.429Z,6.91
2023-02-04T04:10:33.603Z,6.96
2023-02-04T04:13:01.985Z,6.93
2023-02-04T04:15:30.740Z,6.89
2023-02-04T04:17:58.615Z,6.87
2023-02-04T04:20:28.438Z,6.92
2023-02-04T04:22:56.624Z,6.88
2023-02-04T04:25:25.838Z,6.81
2023-02-04T04:27:54.189Z,6.83
2023-02-04T04:30:22.146Z,6.84
2023-02-04T04:32:50.007Z,6.77
2023-02-04T04:35:18.639Z,6.77
2023-02-04T04:37:46.572Z,6.69
2023-02-04T04:40:14.610Z,6.73
2023-02-04T04:42:44.269Z,6.72
2023-02-04T04:45:12.986Z,6.70
2023-02-04T04:47:40.820Z,6.70
2023-02-04T04:50:09.859Z,6.73
2023-02-04T04:52:37.710Z,6.69
2023-02-04T04:55:06.351Z,6.66
2023-02-04T04:57:34.564Z,6.64
2023-02-04T05:00:03.901Z,6.61
2023-02-04T05:02:31.876Z,6.52
2023-02-04T05:05:00.419Z,6.53
2023-02-04T05:07:28.518Z,6.47
2023-02-04T05:09:56.426Z,6.48
2023-02-04T05:12:24.381Z,6.48
2023-02-04T05:14:52.303Z,6.43
2023-02-04T05:17:21.578Z,6.39
2023-02-04T05:19:49.528Z,6.39
2023-02-04T05:22:17.433Z,6.35
2023-02-04T05:24:45.729Z,6.41
2023-02-04T05:27:14.126Z,6.35
2023-02-04T05:29:42.147Z,6.30
2023-02-04T05:32:10.076Z,6.34
2023-02-04T05:34:40.031Z,6.35
2023-02-04T05:37:07.935Z,6.36
2023-02-04T05:39:35.809Z,6.32
2023-02-04T05:42:04.401Z,6.31
2023-02-04T05:44:32.276Z,6.31
2023-02-04T05:47:00.144Z,6.26
2023-02-04T05:49:28.461Z,6.29
2023-02-04T05:51:57.637Z,6.26
2023-02-04T05:54:26.100Z,6.23
2023-02-04T05:56:54.489Z,6.21
2023-02-04T05:59:22.446Z,6.17
2023-02-04T06:01:50.433Z,6.14
2023-02-04T06:04:18.659Z,6.15
2023-02-04T06:06:46.935Z,6.13
2023-02-04T06:09:16.248Z,6.13
2023-02-04T06:11:44.624Z,6.15
2023-02-04T06:14:12.561Z,6.04
2023-02-04T06:16:40.530Z,6.05
2023-02-04T06:19:08.889Z,5.99
2023-02-04T06:21:36.989Z,5.91
2023-02-04T06:24:05.516Z,5.89
2023-02-04T06:26:34.919Z,5.82
2023-02-04T06:29:02.896Z,5.77
2023-02-04T06:31:31.023Z,5.73
2023-02-04T06:34:00.357Z,5.70
2023-02-04T06:36:28.256Z,5.68
2023-02-04T06:38:56.194Z,5.65
2023-02-04T06:41:24.179Z,5.62
2023-02-04T06:43:53.522Z,5.56
2023-02-04T06:46:21.494Z,5.48
2023-02-04T06:48:49.928Z,5.45
2023-02-04T06:51:17.811Z,5.43
2023-02-04T06:53:46.025Z,5.44
2023-02-04T06:56:14.036Z,5.41
2023-02-04T06:58:41.896Z,5.40
2023-02-04T07:01:11.219Z,5.38
2023-02-04T07:03:39.430Z,5.36
2023-02-04T07:06:07.627Z,5.39
2023-02-04T07:08:35.528Z,5.37
2023-02-04T07:11:03.463Z,5.39
2023-02-04T07:13:31.379Z,5.42
2023-02-04T07:15:59.356Z,5.39
2023-02-04T07:18:29.211Z,5.39
2023-02-04T07:20:57.206Z,5.42
2023-02-04T07:23:25.524Z,5.42
2023-02-04T07:25:54.071Z,5.46
2023-02-04T07:28:24.737Z,5.47
2023-02-04T07:30:52.767Z,5.49
2023-02-04T07:33:21.222Z,5.55
2023-02-04T07:35:50.519Z,5.57
2023-02-04T07:38:18.376Z,5.58
2023-02-04T07:40:46.713Z,5.60
2023-02-04T07:43:14.810Z,5.62
2023-02-04T07:45:46.344Z,5.65
2023-02-04T07:48:14.721Z,5.66
2023-02-04T07:50:50.564Z,5.70
2023-02-04T07:53:26.252Z,5.74
2023-02-04T07:55:55.613Z,5.74
2023-02-04T07:58:29.033Z,5.73
2023-02-04T08:00:56.978Z,5.72
2023-02-04T08:03:26.690Z,5.73
2023-02-04T08:05:56.696Z,5.72
2023-02-04T08:08:32.318Z,5.78
2023-02-04T08:11:00.741Z,5.80
2023-02-04T08:13:30.313Z,5.81
2023-02-04T08:16:10.517Z,5.82
2023-02-04T08:18:42.039Z,5.80
2023-02-04T08:21:15.553Z,5.79
2023-02-04T08:23:54.525Z,5.78
2023-02-04T08:26:27.379Z,5.81
2023-02-04T08:28:56.733Z,5.80
2023-02-04T08:31:28.107Z,5.85
2023-02-04T08:34:01.535Z,5.87
2023-02-04T08:36:39.705Z,5.92
2023-02-04T08:39:20.497Z,5.91
2023-02-04T08:41:57.210Z,5.98
2023-02-04T08:44:26.604Z,5.99
2023-02-04T08:46:59.436Z,6.00
2023-02-04T08:49:29.675Z,6.00
2023-02-04T08:51:59.732Z,6.05
2023-02-04T08:54:46.575Z,6.07
2023-02-04T08:57:16.837Z,6.12
2023-02-04T08:59:47.533Z,6.19
2023-02-04T09:02:16.725Z,6.18
2023-02-04T09:04:44.885Z,6.24
2023-02-04T09:07:12.881Z,6.21
2023-02-04T09:09:44.083Z,6.32
2023-02-04T09:12:17.787Z,6.25
2023-02-04T09:14:45.736Z,6.32
2023-02-04T09:17:26.772Z,6.29
2023-02-04T09:19:57.873Z,6.30
2023-02-04T09:22:43.008Z,6.24
2023-02-04T09:25:17.176Z,6.24
2023-02-04T09:27:56.331Z,6.30
2023-02-04T09:30:36.625Z,6.30
2023-02-04T09:33:06.102Z,6.30
2023-02-04T09:35:37.526Z,6.35
2023-02-04T09:38:07.736Z,6.30
2023-02-04T09:40:42.250Z,6.28
2023-02-04T09:43:18.317Z,6.36
2023-02-04T09:45:55.267Z,6.42
2023-02-04T09:48:25.140Z,6.49
2023-02-04T09:51:05.960Z,6.45
2023-02-04T09:53:36.304Z,6.33
2023-02-04T09:56:06.509Z,6.44
2023-02-04T09:58:36.786Z,6.42
2023-02-04T10:01:23.926Z,6.49
2023-02-04T10:03:53.920Z,6.60
2023-02-04T10:06:26.596Z,6.57
2023-02-04T10:08:58.196Z,6.62
2023-02-04T10:11:33.242Z,6.74
2023-02-04T10:14:01.466Z,6.80
2023-02-04T10:16:42.159Z,6.86
2023-02-04T10:19:20.793Z,6.83
2023-02-04T10:21:55.067Z,6.83
2023-02-04T10:24:27.811Z,6.89
2023-02-04T10:27:08.608Z,6.84
2023-02-04T10:29:36.796Z,6.88
2023-02-04T10:32:08.859Z,6.78
2023-02-04T10:34:42.620Z,6.82
2023-02-04T10:37:22.670Z,6.88
2023-02-04T10:39:53.094Z,6.75
2023-02-04T10:42:28.802Z,6.89
2023-02-04T10:44:57.783Z,6.83
2023-02-04T10:47:28.676Z,6.97
2023-02-04T10:50:03.326Z,6.90
2023-02-04T10:52:38.868Z,6.89
2023-02-04T10:55:16.661Z,6.87
2023-02-04T10:57:48.592Z,6.78
2023-02-04T11:00:19.390Z,6.77
2023-02-04T11:02:59.665Z,6.78
2023-02-04T11:05:33.135Z,6.76
2023-02-04T11:08:01.670Z,6.71
2023-02-04T11:10:32.484Z,6.71
2023-02-04T11:13:05.554Z,6.74
2023-02-04T11:15:48.594Z,6.84
2023-02-04T11:18:31.384Z,6.87
2023-02-04T11:21:02.553Z,6.95
2023-02-04T11:23:36.786Z,6.98
2023-02-04T11:26:13.264Z,7.13
2023-02-04T11:29:11.683Z,7.22
2023-02-04T11:31:46.584Z,7.41
2023-02-04T11:34:28.370Z,7.74
2023-02-04T11:37:04.824Z,7.98
2023-02-04T11:39:37.651Z,8.17
2023-02-04T11:42:06.619Z,8.09
2023-02-04T11:44:35.994Z,8.08
2023-02-04T11:47:09.909Z,7.93
2023-02-04T11:49:38.241Z,7.83
2023-02-04T11:52:09.176Z,7.72
2023-02-04T11:54:37.328Z,7.60
2023-02-04T11:57:05.606Z,7.69
2023-02-04T11:59:35.300Z,7.62
2023-02-04T12:02:09.781Z,7.72
2023-02-04T12:04:37.996Z,7.87
2023-02-04T12:07:05.896Z,7.98
2023-02-04T12:09:33.860Z,8.11
2023-02-04T12:12:03.594Z,8.23
2023-02-04T12:14:34.297Z,8.40
2023-02-04T12:17:17.134Z,8.54
2023-02-04T12:19:45.054Z,8.69
2023-02-04T12:22:14.570Z,8.59
2023-02-04T12:24:44.518Z,8.69
2023-02-04T12:27:12.884Z,8.62
2023-02-04T12:29:40.752Z,8.40
2023-02-04T12:32:10.771Z,8.17
2023-02-04T12:34:38.755Z,8.18
2023-02-04T12:37:06.645Z,8.09
2023-02-04T12:39:34.828Z,7.92
2023-02-04T12:42:04.492Z,7.94
2023-02-04T12:44:32.469Z,7.80
2023-02-04T12:47:00.822Z,7.79
2023-02-04T12:49:30.042Z,7.97
2023-02-04T12:52:02.849Z,8.03
2023-02-04T12:54:30.734Z,8.12
2023-02-04T12:56:59.401Z,8.14
2023-02-04T12:59:28.035Z,8.19
2023-02-04T13:01:55.925Z,8.01
2023-02-04T13:04:23.916Z,8.04
2023-02-04T13:06:53.139Z,8.04
2023-02-04T13:09:20.999Z,7.97
2023-02-04T13:11:48.853Z,7.88
2023-02-04T13:14:17.140Z,7.77
2023-02-04T13:16:44.925Z,7.78
2023-02-04T13:19:12.815Z,7.79
2023-02-04T13:21:41.152Z,7.67
2023-02-04T13:24:10.399Z,7.64
2023-02-04T13:26:38.196Z,7.63
2023-02-04T13:29:07.267Z,7.64
2023-02-04T13:31:35.135Z,7.62
2023-02-04T13:34:03.028Z,7.63
2023-02-04T13:36:31.424Z,7.60
2023-02-04T13:39:00.205Z,7.66
2023-02-04T13:41:29.746Z,7.52
2023-02-04T13:43:58.903Z,7.58
2023-02-04T13:46:27.493Z,7.58
2023-02-04T13:48:55.402Z,7.53
2023-02-04T13:51:23.872Z,7.49
2023-02-04T13:53:51.954Z,7.53
2023-02-04T13:56:19.881Z,7.57
2023-02-04T13:58:50.271Z,7.56
2023-02-04T14:01:18.482Z,7.62
2023-02-04T14:03:47.036Z,7.60
2023-02-04T14:06:15.606Z,7.52
2023-02-04T14:08:43.483Z,7.66
2023-02-04T14:11:11.399Z,7.65
2023-02-04T14:13:39.841Z,7.68
2023-02-04T14:16:09.663Z,7.82
2023-02-04T14:18:37.837Z,7.90
2023-02-04T14:21:05.980Z,7.89
2023-02-04T14:23:33.807Z,7.97
2023-02-04T14:26:02.189Z,7.96
2023-02-04T14:28:30.098Z,7.94
2023-02-04T14:30:58.015Z,7.85
2023-02-04T14:33:27.641Z,7.87
2023-02-04T14:35:55.953Z,7.82
2023-02-04T14:38:23.860Z,7.79
2023-02-04T14:40:52.182Z,7.68
2023-02-04T14:43:20.074Z,7.57
2023-02-04T14:45:48.034Z,7.52
2023-02-04T14:48:16.333Z,7.50
2023-02-04T14:50:45.599Z,7.50
2023-02-04T14:53:13.463Z,7.57
2023-02-04T14:55:41.771Z,7.54
2023-02-04T14:58:09.675Z,7.45
2023-02-04T15:00:37.611Z,7.32
2023-02-04T15:03:06.099Z,7.33
2023-02-04T15:05:34.007Z,7.28
2023-02-04T15:08:03.320Z,7.28
2023-02-04T15:10:32.264Z,7.22
2023-02-04T15:13:00.408Z,7.24
2023-02-04T15:15:28.319Z,7.24
2023-02-04T15:17:56.424Z,7.21
2023-02-04T15:20:25.160Z,7.20
2023-02-04T15:22:56.762Z,7.16
2023-02-04T15:25:26.039Z,7.06
2023-02-04T15:27:54.152Z,7.05
2023-02-04T15:30:22.519Z,6.99
2023-02-04T15:32:50.562Z,6.95
2023-02-04T15:35:18.458Z,6.92
2023-02-04T15:37:46.693Z,7.00
2023-02-04T15:40:14.660Z,6.90
2023-02-04T15:42:44.015Z,6.83
2023-02-04T15:45:12.275Z,6.78
2023-02-04T15:47:40.086Z,6.65
2023-02-04T15:50:10.959Z,6.53
2023-02-04T15:52:39.239Z,6.50
2023-02-04T15:55:08.235Z,6.50
2023-02-04T15:57:38.510Z,6.46
2023-02-04T16:00:09.418Z,6.41
2023-02-04T16:02:37.250Z,6.40
2023-02-04T16:05:05.973Z,6.37
2023-02-04T16:07:34.334Z,6.39
2023-02-04T16:10:02.164Z,6.38
2023-02-04T16:12:30.490Z,6.37
2023-02-04T16:14:58.345Z,6.34
2023-02-04T16:17:27.671Z,6.31
2023-02-04T16:19:55.984Z,6.26
2023-02-04T16:22:24.415Z,6.25
2023-02-04T16:24:53.334Z,6.16
2023-02-04T16:27:21.236Z,6.15
2023-02-04T16:29:49.737Z,6.14
2023-02-04T16:32:17.824Z,6.12
2023-02-04T16:34:47.193Z,6.09
2023-02-04T16:37:15.062Z,6.03
2023-02-04T16:39:45.251Z,5.96
2023-02-04T16:42:13.389Z,5.91
2023-02-04T16:44:41.919Z,5.91
2023-02-04T16:47:10.592Z,5.85
2023-02-04T16:49:38.658Z,5.82
2023-02-04T16:52:08.849Z,5.81
2023-02-04T16:54:36.719Z,5.77
2023-02-04T16:57:04.578Z,5.72
2023-02-04T16:59:33.290Z,5.67
2023-02-04T17:02:01.354Z,5.59
2023-02-04T17:04:30.476Z,5.53
2023-02-04T17:07:00.782Z,5.46
2023-02-04T17:09:30.463Z,5.34
2023-02-04T17:11:58.303Z,5.27
2023-02-04T17:14:26.548Z,5.25
2023-02-04T17:16:55.248Z,5.15
2023-02-04T17:19:24.328Z,5.09
2023-02-04T17:21:52.637Z,4.94
2023-02-04T17:24:20.894Z,4.90
2023-02-04T17:26:50.094Z,4.86
2023-02-04T17:29:18.745Z,4.88
2023-02-04T17:31:46.718Z,4.72
2023-02-04T17:34:14.649Z,4.68
2023-02-04T17:36:42.785Z,4.67
2023-02-04T17:39:10.692Z,4.69
2023-02-04T17:41:38.635Z,4.60
2023-02-04T17:44:08.223Z,4.61
2023-02-04T17:46:36.620Z,4.60
2023-02-04T17:49:04.783Z,4.58
2023-02-04T17:51:32.989Z,4.60
2023-02-04T17:54:00.989Z,4.56
2023-02-04T17:56:29.484Z,4.53
2023-02-04T17:58:57.849Z,4.51
2023-02-04T18:01:27.108Z,4.50
2023-02-04T18:03:55.128Z,4.45
2023-02-04T18:06:27.081Z,4.38
2023-02-04T18:09:02.690Z,4.31
2023-02-04T18:11:33.240Z,4.25
2023-02-04T18:14:03.686Z,4.25
2023-02-04T18:16:36.808Z,4.18
2023-02-04T18:19:18.611Z,4.14
2023-02-04T18:21:46.852Z,4.07
2023-02-04T18:24:19.019Z,4.00
2023-02-04T18:26:51.150Z,4.03
2023-02-04T18:29:31.716Z,4.03
2023-02-04T18:32:03.241Z,4.00
2023-02-04T18:34:36.787Z,3.96
2023-02-04T18:37:27.761Z,3.95
2023-02-04T18:40:01.408Z,3.92
2023-02-04T18:42:29.813Z,3.87
2023-02-04T18:44:57.630Z,3.85
2023-02-04T18:47:32.535Z,3.78
2023-02-04T18:50:02.087Z,3.72
2023-02-04T18:52:38.434Z,3.72
2023-02-04T18:55:23.190Z,3.70
2023-02-04T18:57:51.180Z,3.70
2023-02-04T19:00:32.728Z,3.66
2023-02-04T19:03:19.405Z,3.65
2023-02-04T19:05:49.838Z,3.62
2023-02-04T19:08:28.973Z,3.63
2023-02-04T19:10:58.530Z,3.63
2023-02-04T19:13:29.495Z,3.63
2023-02-04T19:16:00.883Z,3.59
2023-02-04T19:18:34.709Z,3.59
2023-02-04T19:21:17.859Z,3.57
2023-02-04T19:23:46.002Z,3.53
2023-02-04T19:26:29.233Z,3.50
2023-02-04T19:28:57.827Z,3.46
2023-02-04T19:31:30.769Z,3.40
2023-02-04T19:34:00.760Z,3.36
2023-02-04T19:36:33.960Z,3.35
2023-02-04T19:39:03.504Z,3.36
2023-02-04T19:41:39.962Z,3.32
2023-02-04T19:44:37.440Z,3.32
2023-02-04T19:47:27.467Z,3.30
2023-02-04T19:50:04.257Z,3.30
2023-02-04T19:52:36.486Z,3.29
2023-02-04T19:55:43.229Z,3.28
2023-02-04T19:58:17.358Z,3.25
2023-02-04T20:00:48.751Z,3.18
2023-02-04T20:03:28.095Z,3.16
2023-02-04T20:06:00.651Z,3.15
2023-02-04T20:08:43.460Z,3.13
2023-02-04T20:11:38.655Z,3.13
2023-02-04T20:14:22.236Z,3.13
2023-02-04T20:16:52.777Z,3.16
2023-02-04T20:19:22.922Z,3.12
2023-02-04T20:22:43.225Z,3.14
2023-02-04T20:25:36.762Z,3.12
2023-02-04T20:28:30.774Z,3.06
2023-02-04T20:31:01.531Z,3.02
2023-02-04T20:33:34.574Z,2.96
2023-02-04T20:36:30.827Z,2.96
2023-02-04T20:39:33.820Z,2.97
2023-02-04T20:42:23.690Z,2.98
2023-02-04T20:44:52.381Z,3.02
2023-02-04T20:47:22.952Z,2.98
2023-02-04T20:49:55.322Z,2.93
2023-02-04T20:53:03.539Z,2.90
2023-02-04T20:55:34.826Z,2.80
2023-02-04T20:58:12.962Z,2.71
2023-02-04T21:00:41.312Z,2.71
2023-02-04T21:03:19.862Z,2.70
2023-02-04T21:05:50.199Z,2.69
2023-02-04T21:08:29.804Z,2.71
2023-02-04T21:11:00.144Z,2.66
2023-02-04T21:13:27.947Z,2.65
2023-02-04T21:15:57.396Z,2.66
2023-02-04T21:18:25.927Z,2.70
2023-02-04T21:20:54.091Z,2.71
2023-02-04T21:23:21.982Z,2.73
2023-02-04T21:25:50.278Z,2.70
2023-02-04T21:28:19.660Z,2.58
2023-02-04T21:30:48.353Z,2.49
2023-02-04T21:33:17.166Z,2.50
2023-02-04T21:35:45.264Z,2.50
2023-02-04T21:38:13.113Z,2.54
2023-02-04T21:40:41.516Z,2.54
2023-02-04T21:43:09.702Z,2.58
2023-02-04T21:45:39.871Z,2.62
2023-02-04T21:48:08.949Z,2.64
2023-02-04T21:50:38.767Z,2.63
2023-02-04T21:53:07.455Z,2.58
2023-02-04T21:55:36.190Z,2.55
2023-02-04T21:58:04.877Z,2.49
2023-02-04T22:00:33.155Z,2.47
2023-02-04T22:03:02.692Z,2.49
2023-02-04T22:05:31.126Z,2.46
2023-02-04T22:07:59.939Z,2.47
2023-02-04T22:10:28.222Z,2.40
2023-02-04T22:12:56.013Z,2.40
2023-02-04T22:15:25.693Z,2.41
2023-02-04T22:17:54.568Z,2.41
2023-02-04T22:20:25.512Z,2.41
2023-02-04T22:22:54.273Z,2.43
2023-02-04T22:25:22.904Z,2.38
2023-02-04T22:27:51.170Z,2.29
2023-02-04T22:30:20.383Z,2.25
2023-02-04T22:32:48.807Z,2.18
2023-02-04T22:35:17.179Z,2.13
2023-02-04T22:37:46.936Z,2.16
2023-02-04T22:40:15.060Z,2.18
2023-02-04T22:42:42.928Z,2.15
2023-02-04T22:45:11.656Z,2.12
2023-02-04T22:47:39.894Z,2.12
2023-02-04T22:50:08.724Z,2.16
2023-02-04T22:52:36.792Z,2.18
2023-02-04T22:55:06.775Z,2.20
2023-02-04T22:57:34.562Z,2.24
2023-02-04T23:00:02.898Z,2.26
2023-02-04T23:02:30.836Z,2.30
2023-02-04T23:05:30.607Z,2.33
2023-02-04T23:07:58.429Z,2.40
2023-02-04T23:10:27.674Z,2.45
2023-02-04T23:12:55.502Z,2.51
2023-02-04T23:15:23.554Z,2.54
2023-02-04T23:17:52.795Z,2.58
2023-02-04T23:20:20.769Z,2.61
2023-02-04T23:22:48.667Z,2.63
2023-02-04T23:25:17.148Z,2.61
2023-02-04T23:27:46.392Z,2.64
2023-02-04T23:30:15.079Z,2.66
2023-02-04T23:32:43.708Z,2.69
2023-02-04T23:35:11.848Z,2.68
2023-02-04T23:37:40.090Z,2.67
2023-02-04T23:40:09.495Z,2.68
2023-02-04T23:42:37.439Z,2.70
2023-02-04T23:45:07.697Z,2.69
2023-02-04T23:47:35.970Z,2.71
2023-02-04T23:50:04.355Z,2.71
2023-02-04T23:52:32.673Z,2.70
2023-02-04T23:55:00.649Z,2.68
2023-02-04T23:57:28.523Z,2.72
2023-02-04T23:59:56.320Z,2.63
